Time;durP1;ratioP1;P1;durP2;ratioP2;P2;SDS_P1;SDS_P2;PMS_P1;PMS_P2;Temp;Humidity;BMP_temperature;BMP_pressure;BME280_temperature;BME280_humidity;BME280_pressure;Samples;Min_cycle;Max_cycle;Signal;HPM_P1;HPM_P2
2022/06/10 00:01:01;;;;;;;13.73;7.50;;;487.10;2380.80;;;;;;5097026;28;20111;-81
2022/06/10 00:03:27;;;;;;;15.65;8.10;;;487.10;2355.20;;;;;;5097230;28;20050;-82
2022/06/10 00:05:59;;;;;;;13.23;8.30;;;486.70;2380.80;;;;;;5097281;28;20023;-81
2022/06/10 00:08:28;;;;;;;10.70;8.45;;;487.10;2380.80;;;;;;5096367;28;20036;-81
2022/06/10 00:10:55;;;;;;;11.95;8.30;;;487.00;2380.80;;;;;;5096641;28;20527;-81
2022/06/10 00:13:23;;;;;;;16.67;9.38;;;487.10;2380.80;;;;;;5096618;28;20495;-81
2022/06/10 00:15:50;;;;;;;14.45;9.90;;;487.10;2380.80;;;;;;5115008;28;20544;-83
2022/06/10 00:18:17;;;;;;;11.05;9.25;;;487.10;2380.80;;;;;;5097093;28;20038;-82
2022/06/10 00:20:43;;;;;;;10.65;8.30;;;487.10;2380.80;;;;;;5096682;28;20069;-82
2022/06/10 00:23:09;;;;;;;13.02;9.52;;;487.10;2380.80;;;;;;5115010;28;20099;-82
2022/06/10 00:25:36;;;;;;;11.70;9.10;;;487.00;2380.80;;;;;;5096879;28;20110;-81
2022/06/10 00:28:03;;;;;;;13.82;9.48;;;486.80;2380.80;;;;;;5096356;28;20118;-81
2022/06/10 00:30:30;;;;;;;13.45;9.50;;;486.70;2380.80;;;;;;5114609;28;20046;-81
2022/06/10 00:32:57;;;;;;;10.35;8.43;;;486.90;2380.80;;;;;;5096642;28;20023;-81
2022/06/10 00:35:23;;;;;;;10.35;8.10;;;487.00;2380.80;;;;;;5096475;28;20114;-80
2022/06/10 00:37:49;;;;;;;9.82;8.30;;;487.10;2380.80;;;;;;5096276;28;20038;-82
2022/06/10 00:40:28;;;;;;;10.35;8.60;;;487.10;2380.80;;;;;;5114793;28;20023;-81
2022/06/10 00:42:56;;;;;;;14.27;10.27;;;487.00;2380.80;;;;;;5114857;28;20024;-82
2022/06/10 00:46:00;;;;;;;14.30;9.50;;;486.80;2380.80;;;;;;5096383;28;20039;-81
2022/06/10 00:48:36;;;;;;;11.70;9.25;;;487.00;2380.80;;;;;;5096264;28;20031;-82
2022/06/10 00:51:17;;;;;;;9.70;8.55;;;487.10;2380.80;;;;;;5096379;28;20457;-81
2022/06/10 00:53:44;;;;;;;12.67;7.87;;;487.20;2380.80;;;;;;5095765;28;20048;-81
2022/06/10 00:56:18;;;;;;;16.45;9.32;;;487.00;2380.80;;;;;;5096192;28;20053;-81
2022/06/10 00:58:55;;;;;;;12.65;8.07;;;487.10;2380.80;;;;;;5095742;28;20476;-81
2022/06/10 01:01:23;;;;;;;10.63;7.22;;;487.10;2380.80;;;;;;5096165;28;20109;-81
2022/06/10 01:03:51;;;;;;;8.45;7.55;;;487.10;2380.80;;;;;;5096127;28;20023;-80
2022/06/10 01:06:17;;;;;;;12.90;8.18;;;487.20;2380.80;;;;;;5113729;28;20023;-80
2022/06/10 01:08:44;;;;;;;10.90;8.52;;;487.00;2380.80;;;;;;5096055;28;20388;-81
2022/06/10 01:12:05;;;;;;;11.45;7.20;;;487.10;2380.80;;;;;;5096243;28;20047;-81
2022/06/10 01:14:47;;;;;;;14.02;7.07;;;487.10;2380.80;;;;;;5056758;28;20034;-82
2022/06/10 01:17:45;;;;;;;9.27;6.78;;;487.00;2380.80;;;;;;5096073;28;20027;-81
2022/06/10 01:20:34;;;;;;;10.13;5.80;;;487.00;2380.80;;;;;;5113657;28;20165;-81
2022/06/10 01:23:18;;;;;;;10.32;7.55;;;487.00;2380.80;;;;;;5095093;28;20384;-81
2022/06/10 01:25:59;;;;;;;10.90;8.68;;;487.00;2380.80;;;;;;5095896;28;20028;-81
2022/06/10 01:28:53;;;;;;;12.65;7.93;;;487.00;2380.80;;;;;;5095763;28;20076;-82
2022/06/10 01:31:33;;;;;;;12.82;8.32;;;487.00;2380.80;;;;;;5095876;28;20031;-82
2022/06/10 01:34:05;;;;;;;11.23;8.10;;;487.00;2380.80;;;;;;5095778;28;20027;-81
2022/06/10 01:36:48;;;;;;;8.67;7.50;;;487.00;2380.80;;;;;;5095844;28;20027;-82
2022/06/10 01:39:47;;;;;;;9.13;6.80;;;487.00;2380.80;;;;;;5114110;28;20103;-81
2022/06/10 01:42:27;;;;;;;9.30;6.55;;;487.00;2380.80;;;;;;5095527;28;20024;-82
2022/06/10 01:45:18;;;;;;;10.45;6.75;;;486.90;2380.80;;;;;;5095904;28;20024;-82
2022/06/10 01:48:10;;;;;;;8.82;7.03;;;486.80;2380.80;;;;;;5095835;28;20435;-83
2022/06/10 01:51:07;;;;;;;8.18;6.60;;;486.90;2380.80;;;;;;5090992;28;20469;-82
2022/06/10 01:53:43;;;;;;;12.70;7.95;;;486.80;2380.80;;;;;;5095715;28;20051;-82
2022/06/10 01:56:29;;;;;;;12.60;7.72;;;486.80;2380.80;;;;;;5113691;28;20027;-82
2022/06/10 01:59:05;;;;;;;14.50;8.10;;;486.80;2380.80;;;;;;5095720;28;20176;-82
2022/06/10 02:01:41;;;;;;;14.15;10.55;;;486.80;2380.80;;;;;;5112947;28;20020;-82
2022/06/10 02:04:21;;;;;;;11.15;9.68;;;486.80;2380.80;;;;;;5095316;28;20023;-81
2022/06/10 02:06:55;;;;;;;14.45;9.45;;;486.80;2380.80;;;;;;5095569;28;20460;-81
2022/06/10 02:09:51;;;;;;;15.50;10.48;;;486.80;2380.80;;;;;;5095274;28;20543;-82
2022/06/10 02:12:29;;;;;;;14.43;11.02;;;486.80;2380.80;;;;;;5093919;28;20043;-81
2022/06/10 02:15:07;;;;;;;13.50;9.40;;;486.80;2380.80;;;;;;5095583;28;20384;-82
2022/06/10 02:17:41;;;;;;;10.43;7.88;;;486.80;2380.80;;;;;;5095289;28;20480;-81
2022/06/10 02:20:14;;;;;;;14.18;8.25;;;486.80;2380.80;;;;;;5095413;28;20027;-82
2022/06/10 02:22:45;;;;;;;11.38;7.97;;;486.70;2380.80;;;;;;5095359;28;20062;-81
2022/06/10 02:25:23;;;;;;;11.07;8.27;;;486.80;2380.80;;;;;;5095285;28;20480;-82
2022/06/10 02:27:53;;;;;;;14.43;11.60;;;486.80;2380.80;;;;;;5095419;28;20495;-81
2022/06/10 02:30:25;;;;;;;19.80;12.85;;;486.80;2380.80;;;;;;5095043;28;20042;-82
2022/06/10 02:32:51;;;;;;;17.13;13.75;;;486.80;2380.80;;;;;;5096114;28;20024;-82
2022/06/10 02:35:18;;;;;;;19.23;15.88;;;486.80;2380.80;;;;;;5098929;28;20475;-81
2022/06/10 02:37:59;;;;;;;18.83;16.02;;;486.80;2380.80;;;;;;5116968;28;20035;-82
2022/06/10 02:40:34;;;;;;;20.67;16.30;;;486.80;2380.80;;;;;;5099142;28;20499;-81
2022/06/10 02:43:18;;;;;;;22.10;17.38;;;486.80;2380.80;;;;;;5098808;28;20031;-83
2022/06/10 02:46:00;;;;;;;20.75;15.75;;;486.80;2380.80;;;;;;5098551;28;20032;-82
2022/06/10 02:48:50;;;;;;;19.65;14.25;;;486.80;2380.80;;;;;;5098671;28;20035;-82
2022/06/10 02:51:16;;;;;;;19.75;15.32;;;486.70;2380.80;;;;;;5116751;28;20035;-82
2022/06/10 02:53:42;;;;;;;17.23;13.82;;;486.70;2099.20;;;;;;5098405;28;20100;-82
2022/06/10 02:56:21;;;;;;;16.98;13.68;;;486.70;2380.80;;;;;;5116800;28;20411;-81
2022/06/10 03:01:52;;;;;;;16.45;13.98;;;486.60;2380.80;;;;;;5116626;28;20030;-81
2022/06/10 03:04:27;;;;;;;20.42;14.73;;;486.70;2380.80;;;;;;5098463;28;20430;-81
2022/06/10 03:07:32;;;;;;;20.77;16.05;;;486.70;2380.80;;;;;;5098005;28;20028;-81
2022/06/10 03:10:23;;;;;;;18.50;15.20;;;486.80;2380.80;;;;;;5116260;28;20051;-81
2022/06/10 03:13:13;;;;;;;21.02;16.25;;;486.90;2380.80;;;;;;5098066;28;20020;-81
2022/06/10 03:16:12;;;;;;;19.88;16.52;;;486.80;2380.80;;;;;;5098229;28;20055;-80
2022/06/10 03:18:49;;;;;;;19.92;15.60;;;486.80;2380.80;;;;;;5098061;28;20049;-81
2022/06/10 03:21:27;;;;;;;21.35;15.73;;;486.80;2380.80;;;;;;5098089;28;20038;-81
2022/06/10 03:24:24;;;;;;;24.65;15.00;;;486.80;2380.80;;;;;;5098062;28;20081;-81
2022/06/10 03:27:01;;;;;;;21.02;15.63;;;486.80;2380.80;;;;;;5107134;28;20036;-81
2022/06/10 03:29:32;;;;;;;20.67;15.32;;;486.80;1996.80;;;;;;5097932;28;20396;-82
2022/06/10 03:32:10;;;;;;;23.67;13.35;;;486.70;2380.80;;;;;;5097838;28;20455;-82
2022/06/10 03:34:42;;;;;;;18.90;12.57;;;486.50;2380.80;;;;;;5097717;28;20428;-81
2022/06/10 03:37:11;;;;;;;16.52;12.32;;;486.50;2380.80;;;;;;5097859;28;20023;-82
2022/06/10 03:39:39;;;;;;;15.07;11.95;;;486.60;2380.80;;;;;;5097796;28;20028;-81
2022/06/10 03:42:14;;;;;;;17.80;11.85;;;486.70;2380.80;;;;;;5097238;28;20034;-81
2022/06/10 03:44:41;;;;;;;13.95;10.98;;;486.70;2380.80;;;;;;5096870;28;20024;-80
2022/06/10 03:47:13;;;;;;;14.73;10.57;;;486.70;2380.80;;;;;;5097127;28;20031;-82
2022/06/10 03:49:55;;;;;;;15.88;10.38;;;486.70;2380.80;;;;;;5097685;28;20036;-81
2022/06/10 03:52:26;;;;;;;16.80;11.93;;;486.70;2380.80;;;;;;5097440;28;20031;-81
2022/06/10 03:54:51;;;;;;;19.58;13.10;;;486.70;2380.80;;;;;;5115060;28;20040;-81
2022/06/10 03:57:17;;;;;;;14.75;12.85;;;486.70;2380.80;;;;;;5097332;28;20034;-81
2022/06/10 03:59:45;;;;;;;17.42;14.38;;;486.70;2380.80;;;;;;5097370;28;20024;-81
2022/06/10 04:02:11;;;;;;;19.35;14.40;;;486.80;2380.80;;;;;;5097313;28;20468;-82
2022/06/10 04:04:38;;;;;;;20.38;15.10;;;486.80;2380.80;;;;;;5097232;28;20020;-82
2022/06/10 04:07:05;;;;;;;20.20;15.73;;;486.80;2380.80;;;;;;5115375;28;20050;-81
2022/06/10 04:09:31;;;;;;;18.30;15.57;;;486.80;2380.80;;;;;;5096895;28;20039;-81
2022/06/10 04:11:57;;;;;;;18.00;14.60;;;486.80;2380.80;;;;;;5096993;28;20020;-81
2022/06/10 04:14:24;;;;;;;16.77;12.07;;;486.80;2380.80;;;;;;5097069;28;20073;-82
2022/06/10 04:16:50;;;;;;;17.05;13.63;;;487.00;2380.80;;;;;;5096682;28;20027;-80
2022/06/10 04:19:16;;;;;;;19.02;13.60;;;487.00;2380.80;;;;;;5096914;28;20494;-81
2022/06/10 04:21:43;;;;;;;16.00;11.77;;;487.00;2380.80;;;;;;5096455;28;20537;-82
2022/06/10 04:24:09;;;;;;;21.27;12.20;;;487.00;2201.60;;;;;;5096470;28;20053;-81
2022/06/10 04:26:35;;;;;;;21.25;12.27;;;487.00;2380.80;;;;;;5096734;28;20024;-81
2022/06/10 04:29:00;;;;;;;17.13;12.98;;;487.00;2380.80;;;;;;5114716;28;20038;-81
2022/06/10 04:31:26;;;;;;;16.83;12.48;;;487.00;2380.80;;;;;;5096625;28;20023;-81
2022/06/10 04:33:52;;;;;;;22.17;12.80;;;487.00;2380.80;;;;;;5114627;28;20061;-81
2022/06/10 04:36:19;;;;;;;19.90;13.93;;;487.10;2380.80;;;;;;5096370;28;20443;-81
2022/06/10 04:38:46;;;;;;;18.05;13.38;;;487.00;2380.80;;;;;;5096522;28;20066;-81
2022/06/10 04:41:12;;;;;;;19.00;13.25;;;486.90;2380.80;;;;;;5096714;28;20380;-82
2022/06/10 04:43:39;;;;;;;14.77;11.88;;;487.00;2380.80;;;;;;5096247;28;20031;-80
2022/06/10 04:46:07;;;;;;;20.80;12.15;;;487.00;2380.80;;;;;;5097036;28;20430;-82
2022/06/10 04:48:34;;;;;;;15.55;12.63;;;487.00;2380.80;;;;;;5097633;28;20027;-79
2022/06/10 04:51:00;;;;;;;17.05;12.13;;;487.00;2380.80;;;;;;5096647;28;20602;-82
2022/06/10 04:53:26;;;;;;;17.88;13.52;;;487.10;2380.80;;;;;;5096407;28;20114;-81
2022/06/10 04:55:52;;;;;;;13.85;11.35;;;487.10;2380.80;;;;;;5114792;28;20063;-82
2022/06/10 04:58:18;;;;;;;12.07;10.70;;;487.10;2380.80;;;;;;5095721;28;20035;-82
2022/06/10 05:00:49;;;;;;;16.23;11.00;;;487.10;2201.60;;;;;;5096580;28;20361;-81
2022/06/10 05:03:16;;;;;;;13.30;10.93;;;487.10;2380.80;;;;;;5096207;28;20072;-82
2022/06/10 05:05:42;;;;;;;12.52;10.60;;;487.10;2380.80;;;;;;5114496;28;20027;-82
2022/06/10 05:08:12;;;;;;;15.95;11.60;;;487.00;2380.80;;;;;;5096007;28;20027;-82
2022/06/10 05:10:38;;;;;;;14.07;11.05;;;487.10;2380.80;;;;;;5096366;28;20522;-81
2022/06/10 05:13:04;;;;;;;14.02;12.25;;;487.10;2380.80;;;;;;5096017;28;20031;-81
2022/06/10 05:15:30;;;;;;;17.77;13.18;;;487.00;2380.80;;;;;;5096034;28;20433;-81
2022/06/10 05:17:58;;;;;;;17.52;13.48;;;487.00;2380.80;;;;;;5114106;28;20031;-82
2022/06/10 05:20:27;;;;;;;17.75;13.05;;;487.00;2380.80;;;;;;5096252;28;20039;-82
2022/06/10 05:22:54;;;;;;;21.02;14.32;;;487.10;2380.80;;;;;;5096117;28;20232;-82
2022/06/10 05:25:19;;;;;;;15.10;12.32;;;487.10;2380.80;;;;;;5095946;28;20031;-82
2022/06/10 05:27:46;;;;;;;14.48;12.75;;;487.20;2380.80;;;;;;5095938;28;20028;-82
2022/06/10 05:30:19;;;;;;;17.02;13.50;;;487.30;2380.80;;;;;;5096196;28;20028;-81
2022/06/10 05:32:45;;;;;;;19.52;12.95;;;487.30;2380.80;;;;;;5095859;28;20031;-82
2022/06/10 05:35:12;;;;;;;17.63;12.18;;;487.30;2380.80;;;;;;5095969;28;20027;-82
2022/06/10 05:37:38;;;;;;;17.48;12.98;;;487.20;2380.80;;;;;;5095876;28;20499;-83
2022/06/10 05:40:04;;;;;;;14.95;13.27;;;487.10;2380.80;;;;;;5095184;28;20024;-82
2022/06/10 05:42:31;;;;;;;21.35;14.45;;;487.30;2380.80;;;;;;5095471;28;20483;-81
2022/06/10 05:44:57;;;;;;;15.65;11.75;;;487.10;2380.80;;;;;;5095994;28;20046;-82
2022/06/10 05:47:26;;;;;;;11.90;8.57;;;512.20;2380.80;;;;;;5095765;28;20529;-82
2022/06/10 05:49:54;;;;;;;13.13;9.98;;;512.20;2304.00;;;;;;5095608;28;20058;-82
2022/06/10 05:52:22;;;;;;;13.50;11.13;;;512.20;2380.80;;;;;;5095926;28;20051;-83
2022/06/10 05:54:50;;;;;;;15.48;11.30;;;512.10;2252.80;;;;;;5095302;28;20048;-83
2022/06/10 05:57:17;;;;;;;16.45;11.68;;;512.10;2304.00;;;;;;5114183;28;20069;-82
2022/06/10 05:59:46;;;;;;;15.00;11.57;;;512.10;2380.80;;;;;;5095754;28;20404;-82
2022/06/10 06:02:14;;;;;;;17.40;10.65;;;487.30;2380.80;;;;;;5095701;28;20101;-82
2022/06/10 06:04:40;;;;;;;14.02;11.60;;;512.10;2380.80;;;;;;5095772;28;20047;-81
2022/06/10 06:07:06;;;;;;;16.17;10.80;;;512.10;2380.80;;;;;;5113961;28;20032;-83
2022/06/10 06:09:32;;;;;;;14.30;10.82;;;512.20;2380.80;;;;;;5117076;28;20088;-82
2022/06/10 06:11:58;;;;;;;14.25;12.52;;;512.80;2380.80;;;;;;5099395;28;20357;-81
2022/06/10 06:14:26;;;;;;;14.25;12.75;;;512.60;2380.80;;;;;;5098987;28;20039;-81
2022/06/10 06:16:54;;;;;;;20.60;13.23;;;512.60;2380.80;;;;;;5099416;28;20023;-81
2022/06/10 06:19:21;;;;;;;16.90;12.90;;;512.60;2380.80;;;;;;5117325;28;20522;-81
2022/06/10 06:21:47;;;;;;;16.00;11.27;;;512.60;2380.80;;;;;;5099047;28;20106;-81
2022/06/10 06:24:13;;;;;;;15.05;11.55;;;512.60;2380.80;;;;;;5099136;28;20104;-81
2022/06/10 06:26:39;;;;;;;13.63;10.88;;;512.60;2380.80;;;;;;5099105;28;20020;-81
2022/06/10 06:29:05;;;;;;;12.25;9.43;;;512.70;2380.80;;;;;;5098741;28;20023;-80
2022/06/10 06:31:30;;;;;;;15.10;9.65;;;512.80;2380.80;;;;;;5099050;28;20034;-81
2022/06/10 06:33:56;;;;;;;15.63;9.55;;;512.90;2380.80;;;;;;5099143;28;20024;-81
2022/06/10 06:36:25;;;;;;;12.38;9.82;;;512.90;2380.80;;;;;;5098743;28;20024;-81
2022/06/10 06:38:51;;;;;;;10.35;8.30;;;512.80;2380.80;;;;;;5099761;28;20031;-80
2022/06/10 06:41:19;;;;;;;12.25;8.98;;;512.60;2380.80;;;;;;5100095;28;20024;-81
2022/06/10 06:43:45;;;;;;;15.98;10.45;;;512.60;2380.80;;;;;;5114241;28;20007;-80
2022/06/10 06:46:14;;;;;;;13.75;10.63;;;512.70;2380.80;;;;;;5124049;28;20094;-80
2022/06/10 06:48:40;;;;;;;17.25;10.50;;;512.60;2380.80;;;;;;5122974;28;20115;-79
2022/06/10 06:51:06;;;;;;;14.63;9.95;;;512.70;2380.80;;;;;;5121818;28;20026;-77
2022/06/10 06:53:33;;;;;;;12.25;9.25;;;512.70;2380.80;;;;;;5117024;28;20119;-79
2022/06/10 06:55:58;;;;;;;12.93;9.82;;;512.80;2380.80;;;;;;5098711;28;20028;-78
2022/06/10 06:58:24;;;;;;;9.85;8.85;;;512.80;2380.80;;;;;;5098405;28;20385;-80
2022/06/10 07:00:50;;;;;;;14.45;9.38;;;512.80;2380.80;;;;;;5098545;28;20030;-80
2022/06/10 07:03:16;;;;;;;11.70;9.65;;;512.80;2380.80;;;;;;5098033;28;20094;-81
2022/06/10 07:05:42;;;;;;;16.77;9.93;;;512.90;2380.80;;;;;;5098391;28;20048;-80
2022/06/10 07:08:09;;;;;;;13.10;9.85;;;512.90;2380.80;;;;;;5116162;28;20023;-79
2022/06/10 07:10:36;;;;;;;13.07;10.60;;;512.90;2380.80;;;;;;5097793;28;20040;-79
2022/06/10 07:13:02;;;;;;;12.85;10.60;;;512.90;2380.80;;;;;;5098098;28;20027;-80
2022/06/10 07:15:28;;;;;;;14.00;10.50;;;512.70;2380.80;;;;;;5116357;28;20739;-79
2022/06/10 07:17:54;;;;;;;14.75;8.43;;;512.80;2380.80;;;;;;5097822;28;20063;-79
2022/06/10 07:20:26;;;;;;;7.45;5.43;;;512.80;2380.80;;;;;;5096695;28;20436;-79
2022/06/10 07:22:52;;;;;;;10.10;5.40;;;512.90;2380.80;;;;;;5116217;28;20019;-80
2022/06/10 07:25:19;;;;;;;11.05;6.07;;;512.90;2380.80;;;;;;5097645;28;20027;-79
2022/06/10 07:27:45;;;;;;;9.75;5.28;;;512.90;2380.80;;;;;;5116167;28;20055;-79
2022/06/10 07:30:14;;;;;;;13.30;5.05;;;537.60;2406.40;;;;;;5116057;28;20030;-79
2022/06/10 07:32:41;;;;;;;16.98;5.13;;;537.70;2406.40;;;;;;5097403;28;20023;-78
2022/06/10 07:35:08;;;;;;;6.65;4.43;;;537.80;2406.40;;;;;;5097662;28;20031;-78
2022/06/10 07:37:34;;;;;;;9.35;5.18;;;538.40;2406.40;;;;;;5097650;28;20035;-78
2022/06/10 07:40:00;;;;;;;9.25;5.13;;;537.80;2406.40;;;;;;5097113;28;20034;-79
2022/06/10 07:42:26;;;;;;;10.60;5.45;;;537.80;2406.40;;;;;;5115721;28;20020;-79
2022/06/10 07:44:52;;;;;;;11.50;5.72;;;537.80;2406.40;;;;;;5097126;28;20062;-81
2022/06/10 07:47:18;;;;;;;8.75;5.43;;;537.80;2406.40;;;;;;5097534;28;20032;-79
2022/06/10 07:49:44;;;;;;;12.55;5.65;;;537.70;2406.40;;;;;;5097158;28;20036;-80
2022/06/10 07:52:10;;;;;;;14.27;6.70;;;537.70;2406.40;;;;;;5096092;28;20043;-79
2022/06/10 07:54:36;;;;;;;9.48;6.38;;;537.70;2406.40;;;;;;5093940;28;20044;-78
2022/06/10 07:57:03;;;;;;;9.50;5.95;;;537.70;2406.40;;;;;;5094871;28;20039;-78
2022/06/10 07:59:30;;;;;;;8.70;7.07;;;512.80;2380.80;;;;;;5093615;28;20125;-78
2022/06/10 08:01:56;;;;;;;15.55;6.63;;;537.80;2406.40;;;;;;5095299;28;20477;-78
2022/06/10 08:04:22;;;;;;;13.30;6.47;;;538.00;2406.40;;;;;;5101066;28;20112;-78
2022/06/10 08:06:48;;;;;;;8.70;6.53;;;538.10;2406.40;;;;;;5093530;28;20453;-79
2022/06/10 08:09:16;;;;;;;13.75;7.68;;;538.30;2406.40;;;;;;5093598;28;20028;-79
2022/06/10 08:11:42;;;;;;;8.13;6.18;;;538.40;2406.40;;;;;;5101866;28;20046;-80
2022/06/10 08:14:08;;;;;;;10.57;6.47;;;538.30;2406.40;;;;;;5102803;28;21440;-82
2022/06/10 08:16:35;;;;;;;11.88;7.28;;;538.30;2406.40;;;;;;5099637;28;20024;-80
2022/06/10 08:19:01;;;;;;;10.07;6.70;;;538.30;2406.40;;;;;;5105608;28;20422;-80
2022/06/10 08:24:11;;;;;;;11.38;6.60;;;538.20;2406.40;;;;;;5100703;28;20037;-81
2022/06/10 08:26:37;;;;;;;10.68;6.10;;;538.20;2406.40;;;;;;5102840;28;20024;-80
2022/06/10 08:29:04;;;;;;;12.00;6.45;;;538.20;2406.40;;;;;;5110824;28;20062;-80
2022/06/10 08:31:30;;;;;;;11.35;6.72;;;538.30;2406.40;;;;;;5094491;28;20472;-81
2022/06/10 08:33:57;;;;;;;9.18;6.25;;;538.30;2406.40;;;;;;5092319;28;20026;-81
2022/06/10 08:36:23;;;;;;;8.73;6.50;;;538.30;2406.40;;;;;;5093090;28;20059;-81
2022/06/10 08:38:49;;;;;;;9.23;6.28;;;538.30;2406.40;;;;;;5093106;28;20078;-80
2022/06/10 08:41:39;;;;;;;8.10;5.35;;;538.30;2406.40;;;;;;5094238;28;20400;-80
2022/06/10 08:44:29;;;;;;;9.85;5.63;;;538.40;2406.40;;;;;;5093284;28;20035;-82
2022/06/10 08:47:07;;;;;;;9.20;6.18;;;538.50;2406.40;;;;;;5092999;28;20102;-82
2022/06/10 08:49:39;;;;;;;7.78;5.55;;;563.20;2432.00;;;;;;5093219;28;20028;-79
2022/06/10 08:52:28;;;;;;;11.10;6.32;;;563.20;2432.00;;;;;;5093430;28;20071;-84
2022/06/10 08:55:00;;;;;;;10.50;5.90;;;563.30;2432.00;;;;;;5097534;28;20051;-82
2022/06/10 08:57:35;;;;;;;8.13;5.85;;;563.40;2432.00;;;;;;5096772;28;20538;-81
2022/06/10 09:00:03;;;;;;;8.80;4.88;;;563.50;2432.00;;;;;;5098030;28;20093;-80
2022/06/10 09:02:39;;;;;;;7.45;5.80;;;563.50;2432.00;;;;;;5102020;27;20119;-79
2022/06/10 09:05:12;;;;;;;9.63;5.10;;;563.60;2432.00;;;;;;5104308;27;20034;-80
2022/06/10 09:07:52;;;;;;;10.70;7.10;;;563.60;2432.00;;;;;;5123789;27;20024;-80
2022/06/10 09:10:54;;;;;;;8.18;6.00;;;563.70;2432.00;;;;;;5107901;28;20038;-80
2022/06/10 09:13:21;;;;;;;;;;;563.80;2432.00;;;;;;5095279;28;20028;-80
2022/06/10 09:16:08;;;;;;;9.48;5.15;;;563.80;2432.00;;;;;;5095728;28;19965;-77
2022/06/10 09:19:02;;;;;;;8.13;5.88;;;563.90;2432.00;;;;;;5113770;28;20373;-77
2022/06/10 09:21:43;;;;;;;12.18;6.75;;;564.00;2432.00;;;;;;5105653;28;20031;-77
2022/06/10 09:24:18;;;;;;;8.45;5.90;;;564.10;2432.00;;;;;;5098505;28;20088;-78
2022/06/10 09:26:54;;;;;;;6.53;5.43;;;564.10;2432.00;;;;;;5108647;28;20028;-79
2022/06/10 09:29:20;;;;;;;6.72;4.90;;;564.10;2432.00;;;;;;5106716;28;20034;-78
2022/06/10 09:31:56;;;;;;;9.70;5.22;;;564.10;2432.00;;;;;;5106572;28;20019;-79
2022/06/10 09:34:28;;;;;;;9.50;5.00;;;564.10;2432.00;;;;;;5106552;28;20375;-81
2022/06/10 09:37:20;;;;;;;6.68;5.65;;;564.00;2432.00;;;;;;5113691;28;20086;-79
2022/06/10 09:43:07;;;;;;;8.75;4.07;;;564.00;2432.00;;;;;;5053777;28;20124;-82
2022/06/10 09:45:41;;;;;;;8.13;4.50;;;563.90;2432.00;;;;;;5096281;28;20036;-82
2022/06/10 09:48:36;;;;;;;6.25;4.53;;;563.80;2432.00;;;;;;5102977;28;20066;-78
2022/06/10 09:51:31;;;;;;;11.15;4.93;;;563.80;2432.00;;;;;;5100189;28;20032;-79
2022/06/10 09:54:31;;;;;;;9.45;5.60;;;563.90;2432.00;;;;;;5051849;28;20078;-79
2022/06/10 09:57:34;;;;;;;13.40;4.43;;;564.00;2432.00;;;;;;5101826;28;20055;-80
2022/06/10 10:00:03;;;;;;;11.73;4.93;;;564.00;2432.00;;;;;;5100160;28;20024;-80
2022/06/10 10:02:40;;;;;;;6.88;4.25;;;564.00;2432.00;;;;;;5099702;28;20023;-82
2022/06/10 10:05:26;;;;;;;9.07;5.10;;;564.00;2432.00;;;;;;5099294;28;20028;-81
2022/06/10 10:08:03;;;;;;;9.15;4.63;;;564.10;2432.00;;;;;;5048169;28;20035;-81
2022/06/10 10:10:34;;;;;;;15.93;5.72;;;564.10;2432.00;;;;;;5099633;28;20030;-81
2022/06/10 10:13:34;;;;;;;9.05;5.75;;;588.80;2432.00;;;;;;5099465;28;20028;-80
2022/06/10 10:16:02;;;;;;;6.40;5.07;;;589.00;2432.00;;;;;;5117786;28;20024;-81
2022/06/10 10:19:00;;;;;;;7.30;4.18;;;589.00;2432.00;;;;;;5099644;28;20460;-80
2022/06/10 10:21:38;;;;;;;9.65;5.10;;;589.30;2432.00;;;;;;5099176;28;20449;-80
2022/06/10 10:24:15;;;;;;;8.15;4.95;;;589.30;2432.00;;;;;;5117615;28;20047;-78
2022/06/10 10:26:43;;;;;;;9.85;5.05;;;589.40;2432.00;;;;;;5098842;28;20114;-79
2022/06/10 10:29:38;;;;;;;7.80;5.00;;;589.40;2432.00;;;;;;5099007;28;20031;-77
2022/06/10 10:32:30;;;;;;;6.35;4.30;;;589.60;2432.00;;;;;;5095769;28;20131;-78
2022/06/10 10:35:03;;;;;;;16.00;5.38;;;589.70;2432.00;;;;;;5117223;28;20517;-78
2022/06/10 10:37:35;;;;;;;10.68;7.32;;;614.40;2432.00;;;;;;5117263;28;20476;-79
2022/06/10 10:40:16;;;;;;;13.67;8.73;;;614.40;2432.00;;;;;;5098583;28;20115;-78
2022/06/10 10:42:44;;;;;;;14.90;9.35;;;614.50;2432.00;;;;;;5098746;28;20055;-79
2022/06/10 10:45:26;;;;;;;12.98;5.78;;;614.50;2432.00;;;;;;5098909;28;20404;-78
2022/06/10 10:48:19;;;;;;;7.35;5.63;;;614.60;2432.00;;;;;;5098316;28;20385;-81
2022/06/10 10:51:13;;;;;;;10.40;4.63;;;614.70;2432.00;;;;;;5117150;28;20039;-79
2022/06/10 10:53:42;;;;;;;7.70;4.70;;;615.00;2432.00;;;;;;5098199;28;20040;-78
2022/06/10 10:56:12;;;;;;;11.90;4.90;;;615.20;2432.00;;;;;;5098683;28;20114;-78
2022/06/10 10:58:46;;;;;;;9.30;5.20;;;640.00;2432.00;;;;;;5098337;28;20407;-79
2022/06/10 11:01:43;;;;;;;4.60;3.25;;;640.10;2432.00;;;;;;5098144;28;20450;-79
2022/06/10 11:04:00;;;;;;;7.13;3.92;;;640.40;2432.00;;;;;;5131065;27;20035;-81
2022/06/10 11:06:36;;;;;;;6.43;4.40;;;640.10;2432.00;;;;;;5102532;27;20034;-79
2022/06/10 11:09:22;;;;;;;8.38;4.22;;;640.50;2432.00;;;;;;5118471;27;20034;-79
2022/06/10 11:11:50;;;;;;;6.05;3.85;;;640.60;2432.00;;;;;;5137043;27;20110;-80
2022/06/10 11:14:21;;;;;;;8.15;4.10;;;640.50;2432.00;;;;;;5118246;27;20034;-79
2022/06/10 11:17:11;;;;;;;6.78;4.00;;;640.30;2432.00;;;;;;5118034;27;20027;-79
2022/06/10 11:19:40;;;;;;;8.07;3.78;;;640.10;2432.00;;;;;;5118479;27;20027;-78
2022/06/10 11:22:39;;;;;;;8.82;3.60;;;640.00;2432.00;;;;;;5118247;27;20027;-79
2022/06/10 11:25:14;;;;;;;6.88;4.00;;;640.20;2432.00;;;;;;5063524;27;20035;-81
2022/06/10 11:27:50;;;;;;;7.93;4.50;;;640.50;2432.00;;;;;;5118407;27;20027;-78
2022/06/10 11:30:24;;;;;;;6.47;5.30;;;640.70;2432.00;;;;;;5136745;27;20035;-79
2022/06/10 11:32:49;;;;;;;7.72;4.10;;;640.90;2432.00;;;;;;5118245;27;20460;-79
2022/06/10 11:35:24;;;;;;;7.50;4.45;;;640.90;2432.00;;;;;;5097669;28;20035;-80
2022/06/10 11:38:01;;;;;;;10.57;6.28;;;665.60;2432.00;;;;;;5101928;27;20458;-79
2022/06/10 11:40:51;;;;;;;13.45;7.93;;;640.90;2432.00;;;;;;5118058;27;20468;-81
2022/06/10 11:43:23;;;;;;;18.17;7.40;;;640.70;2432.00;;;;;;5118026;27;20027;-83
2022/06/10 11:45:51;;;;;;;6.70;4.30;;;640.60;2432.00;;;;;;5118478;27;20026;-82
2022/06/10 11:48:30;;;;;;;7.75;5.03;;;640.70;2432.00;;;;;;5118338;27;20053;-80
2022/06/10 11:51:27;;;;;;;9.30;4.20;;;665.70;2432.00;;;;;;5117936;27;20179;-81
2022/06/10 11:54:07;;;;;;;8.63;4.35;;;665.80;2432.00;;;;;;5116097;27;20046;-79
2022/06/10 12:00:09;;;;;;;9.40;5.70;;;665.90;2432.00;;;;;;5118469;27;20080;-81
2022/06/10 12:02:56;;;;;;;9.95;6.10;;;666.20;2432.00;;;;;;5097387;28;20028;-80
2022/06/10 12:05:49;;;;;;;9.15;5.07;;;666.30;2432.00;;;;;;5114841;28;20096;-79
2022/06/10 12:08:27;;;;;;;14.50;8.82;;;666.20;2432.00;;;;;;5105556;27;20031;-79
2022/06/10 12:11:24;;;;;;;13.82;10.15;;;666.50;2432.00;;;;;;5104870;27;20168;-75
2022/06/10 12:14:01;;;;;;;16.30;8.18;;;691.30;2432.00;;;;;;5135906;27;20148;-78
2022/06/10 12:16:30;;;;;;;9.45;5.95;;;666.30;2432.00;;;;;;5117116;27;20468;-79
2022/06/10 12:19:00;;;;;;;9.35;5.70;;;666.20;2432.00;;;;;;5135517;27;20060;-79
2022/06/10 12:21:29;;;;;;;10.13;3.88;;;666.00;2432.00;;;;;;5114810;27;20027;-77
2022/06/10 12:23:55;;;;;;;15.90;8.80;;;665.90;2432.00;;;;;;5115273;28;20072;-77
2022/06/10 12:26:30;;;;;;;7.50;5.45;;;665.80;2432.00;;;;;;5114720;28;20463;-77
2022/06/10 12:29:02;;;;;;;9.75;5.28;;;665.60;2432.00;;;;;;5096806;28;20464;-78
2022/06/10 12:31:58;;;;;;;11.57;4.68;;;665.60;2432.00;;;;;;5096719;28;20030;-79
2022/06/10 12:34:57;;;;;;;7.20;4.70;;;665.90;2432.00;;;;;;5099438;27;20035;-78
2022/06/10 12:37:43;;;;;;;6.85;4.35;;;665.80;2432.00;;;;;;5115542;27;20118;-79
2022/06/10 12:40:31;;;;;;;10.75;4.78;;;665.60;2432.00;;;;;;5116799;27;20114;-81
2022/06/10 12:43:06;;;;;;;5.60;3.75;;;640.90;2432.00;;;;;;5117199;27;20065;-80
2022/06/10 12:45:46;;;;;;;10.02;4.35;;;640.60;2432.00;;;;;;5117033;27;20027;-79
2022/06/10 12:48:16;;;;;;;11.05;4.30;;;640.30;2432.00;;;;;;5117117;27;20027;-79
2022/06/10 12:50:58;;;;;;;10.88;4.40;;;640.20;2432.00;;;;;;5117190;27;20027;-78
2022/06/10 12:53:52;;;;;;;5.88;4.28;;;640.10;2432.00;;;;;;5116296;27;20441;-79